EICKEIKN

Guest
Details From EICK - Cork
To EIKN - Ireland West Airport Knock
Flight Number -
Tags generated
Created
Modified
Stats Distance 125 nm / 232 km
Max Altitude 8,500 ft / 2,591 m
Waypoints 3
Social Downloads 0
Likes 0
Share VATSIM

Download

Looking for another format? Having issues loading an existing format? Contact us
Advertisement - Login to hide

Notes

Basic altitude profile: - Ascent Rate: 2500ft/min - Ascent Speed: 250kts - Cruise Altitude: 35000ft - Cruise Speed: 420kts - Descent Rate: 1500ft/min - Descent Speed: 250kts Options: - Use NATs: yes - Use PACOTS: yes - Use low airways: yes - Use high airways: yes

Route

EICK KURUM EIKN

ID Type Via Altitude Latitude Longitude Leg Dist Tot Dist Heading (true) Name
O EICK APT - 0 ft / 0 m 51.84261˚ -8.48906˚ - 0 nm - Cork
KURUM FIX - 8,500 ft / 2,591 m 52.22861˚ -8.66472˚ 24 nm 24 nm 344° / 344° -
O EIKN APT - 0 ft / 0 m 53.91031˚ -8.81847˚ 101 nm 125 nm 357° / 357° Ireland West Airport Knock

Altitude Profile

Advertisement - Login to hide

EICK

Details ICAO EICK (ORK)
Name Cork
Region Ireland
Timezone Europe/Dublin (UTC+0.0)
Stats Elevation 502 ft / 153 m (AMSL)
Location 51.842605° -8.489056°
Runways 2
Magnetic Variation 3.611° W

METAR

EICK 161130Z 26007KT 9999 FEW020 SCT080 06/03 Q1023 NOSIG

Decode

TAF

TAF EICK 160500Z 1606/1706 27008KT 9999 FEW015 BECMG 1622/1624 22010KT BECMG 1705/1706 -RA BKN010

Decode

Departure Runways

ID Width Length Bearing (true) Bearing (mag) Surface Threshold Offset Overrun Length
07 148 ft / 45 m 4,281 ft / 1,305 m 62.55° 66.16° Concrete 0 ft / 0 m 0 ft / 0 m
17 148 ft / 45 m 6,992 ft / 2,131 m 159.93° 163.54° Asphalt 0 ft / 0 m 115 ft / 35 m
25 148 ft / 45 m 4,281 ft / 1,305 m 242.57° 246.18° Concrete 0 ft / 0 m 39 ft / 12 m
35 148 ft / 45 m 6,992 ft / 2,131 m 339.94° 343.55° Asphalt 0 ft / 0 m 0 ft / 0 m

EIKN

Details ICAO EIKN (NOC)
Name Ireland West Airport Knock
Region Ireland
Timezone Europe/Dublin (UTC+0.0)
Stats Elevation 665 ft / 203 m (AMSL)
Location 53.910306° -8.818474°
Runways 1
Magnetic Variation 4.161° W

METAR

EIKN 161130Z 25006KT 9999 VCSH FEW020CB BKN200 05/04 Q1020 NOSIG

Decode

TAF

TAF EIKN 160500Z 1606/1706 26010KT 9999 SCT030 TEMPO 1606/1621 -RA BKN012 PROB40 TEMPO 1606/1609 4000 -RADZ BKN007 BECMG 1615/1618 21007KT BECMG 1621/1624 -RA BKN012 TEMPO 1700/1706 3000 -RADZ BR BKN005 BECMG 1701/1703 18010KT

Decode

Destination Runways

ID Width Length Bearing (true) Bearing (mag) Surface Threshold Offset Overrun Length
09 148 ft / 45 m 7,513 ft / 2,290 m 78.74° 82.90° Asphalt 482 ft / 147 m 0 ft / 0 m
27 148 ft / 45 m 7,513 ft / 2,290 m 258.76° 262.92° Asphalt 0 ft / 0 m 0 ft / 0 m

Approach Navaids

Runway Type Ident Frequency Range Bearing (true) Bearing (mag) Slope Elevation
27 Localiser ICK 110.70 MHz 18 nm / 33 km 258.69° 262.85° - 593 ft / 181 m (AMSL)
27 Glidescope ICK 110.70 MHz 10 nm / 19 km 258.75° 262.91° 3.00° 688 ft / 210 m (AMSL)